sensor_id;sensor_type;location;lat;lon;timestamp;temperature;humidity
38131;DHT22;23947;51.894;4.622;2022-12-07T00:00:40;5.20;1.00
38131;DHT22;23947;51.894;4.622;2022-12-07T00:03:06;5.20;1.00
38131;DHT22;23947;51.894;4.622;2022-12-07T00:05:32;5.20;1.00
38131;DHT22;23947;51.894;4.622;2022-12-07T00:07:57;5.30;1.00
38131;DHT22;23947;51.894;4.622;2022-12-07T00:10:23;5.20;1.00
38131;DHT22;23947;51.894;4.622;2022-12-07T00:12:48;5.30;1.00
38131;DHT22;23947;51.894;4.622;2022-12-07T00:15:15;5.20;1.00
38131;DHT22;23947;51.894;4.622;2022-12-07T00:17:41;5.20;1.00
38131;DHT22;23947;51.894;4.622;2022-12-07T00:20:07;5.20;1.00
38131;DHT22;23947;51.894;4.622;2022-12-07T00:22:32;5.20;1.00
38131;DHT22;23947;51.894;4.622;2022-12-07T00:24:58;5.20;1.00
38131;DHT22;23947;51.894;4.622;2022-12-07T00:27:23;5.20;1.00
38131;DHT22;23947;51.894;4.622;2022-12-07T00:29:49;5.20;1.00
38131;DHT22;23947;51.894;4.622;2022-12-07T00:32:14;5.20;1.00
38131;DHT22;23947;51.894;4.622;2022-12-07T00:34:40;5.20;1.00
38131;DHT22;23947;51.894;4.622;2022-12-07T00:37:06;5.20;1.00
38131;DHT22;23947;51.894;4.622;2022-12-07T00:39:31;5.20;1.00
38131;DHT22;23947;51.894;4.622;2022-12-07T00:41:57;5.10;1.00
38131;DHT22;23947;51.894;4.622;2022-12-07T00:44:22;5.20;1.00
38131;DHT22;23947;51.894;4.622;2022-12-07T00:46:48;5.10;1.00
38131;DHT22;23947;51.894;4.622;2022-12-07T00:49:14;5.00;1.00
38131;DHT22;23947;51.894;4.622;2022-12-07T00:51:39;5.00;1.00
38131;DHT22;23947;51.894;4.622;2022-12-07T00:54:05;5.00;1.00
38131;DHT22;23947;51.894;4.622;2022-12-07T00:56:30;4.90;1.00
38131;DHT22;23947;51.894;4.622;2022-12-07T00:58:57;4.80;1.00
38131;DHT22;23947;51.894;4.622;2022-12-07T01:01:25;4.80;1.00
38131;DHT22;23947;51.894;4.622;2022-12-07T01:03:51;4.80;1.00
38131;DHT22;23947;51.894;4.622;2022-12-07T01:06:18;4.80;1.00
38131;DHT22;23947;51.894;4.622;2022-12-07T01:08:44;4.80;1.00
38131;DHT22;23947;51.894;4.622;2022-12-07T01:11:13;4.70;1.00
38131;DHT22;23947;51.894;4.622;2022-12-07T01:13:40;4.80;1.00
38131;DHT22;23947;51.894;4.622;2022-12-07T01:16:06;4.70;1.00
38131;DHT22;23947;51.894;4.622;2022-12-07T01:18:34;4.70;1.00
38131;DHT22;23947;51.894;4.622;2022-12-07T01:23:30;4.70;1.00
38131;DHT22;23947;51.894;4.622;2022-12-07T01:26:01;4.80;1.00
38131;DHT22;23947;51.894;4.622;2022-12-07T01:28:28;4.80;1.00
38131;DHT22;23947;51.894;4.622;2022-12-07T01:31:02;4.80;1.00
38131;DHT22;23947;51.894;4.622;2022-12-07T01:33:30;4.80;1.00
38131;DHT22;23947;51.894;4.622;2022-12-07T01:36:19;4.80;1.00
38131;DHT22;23947;51.894;4.622;2022-12-07T01:38:47;4.70;1.00
38131;DHT22;23947;51.894;4.622;2022-12-07T01:41:13;4.70;1.00
38131;DHT22;23947;51.894;4.622;2022-12-07T01:44:18;4.70;1.00
38131;DHT22;23947;51.894;4.622;2022-12-07T01:46:46;4.60;1.00
38131;DHT22;23947;51.894;4.622;2022-12-07T01:49:17;4.60;1.00
38131;DHT22;23947;51.894;4.622;2022-12-07T01:51:45;4.60;1.00
38131;DHT22;23947;51.894;4.622;2022-12-07T01:54:12;4.50;1.00
38131;DHT22;23947;51.894;4.622;2022-12-07T01:56:44;4.40;1.00
38131;DHT22;23947;51.894;4.622;2022-12-07T01:59:13;4.40;1.00
38131;DHT22;23947;51.894;4.622;2022-12-07T02:01:39;4.40;1.00
38131;DHT22;23947;51.894;4.622;2022-12-07T02:04:06;4.30;1.00
38131;DHT22;23947;51.894;4.622;2022-12-07T02:06:31;4.20;1.00
38131;DHT22;23947;51.894;4.622;2022-12-07T02:08:57;4.20;1.00
38131;DHT22;23947;51.894;4.622;2022-12-07T02:11:23;4.20;1.00
38131;DHT22;23947;51.894;4.622;2022-12-07T02:13:49;4.10;1.00
38131;DHT22;23947;51.894;4.622;2022-12-07T02:21:46;4.20;1.00
38131;DHT22;23947;51.894;4.622;2022-12-07T02:29:50;4.40;1.00
38131;DHT22;23947;51.894;4.622;2022-12-07T02:40:40;4.40;1.00
38131;DHT22;23947;51.894;4.622;2022-12-07T02:44:01;4.30;1.00
38131;DHT22;23947;51.894;4.622;2022-12-07T02:46:22;4.30;1.00
38131;DHT22;23947;51.894;4.622;2022-12-07T02:48:50;4.20;1.00
38131;DHT22;23947;51.894;4.622;2022-12-07T02:51:17;4.20;1.00
38131;DHT22;23947;51.894;4.622;2022-12-07T02:53:44;4.10;1.00
38131;DHT22;23947;51.894;4.622;2022-12-07T02:59:48;4.10;1.00
38131;DHT22;23947;51.894;4.622;2022-12-07T03:02:36;4.10;1.00
38131;DHT22;23947;51.894;4.622;2022-12-07T03:13:48;4.10;1.00
38131;DHT22;23947;51.894;4.622;2022-12-07T03:16:20;4.10;1.00
38131;DHT22;23947;51.894;4.622;2022-12-07T03:19:07;4.20;1.00
38131;DHT22;23947;51.894;4.622;2022-12-07T03:21:40;4.20;1.00
38131;DHT22;23947;51.894;4.622;2022-12-07T03:24:12;4.20;1.00
38131;DHT22;23947;51.894;4.622;2022-12-07T03:26:42;4.20;1.00
38131;DHT22;23947;51.894;4.622;2022-12-07T03:29:19;4.20;1.00
38131;DHT22;23947;51.894;4.622;2022-12-07T03:31:54;4.30;1.00
38131;DHT22;23947;51.894;4.622;2022-12-07T03:34:26;4.30;1.00
38131;DHT22;23947;51.894;4.622;2022-12-07T03:39:28;4.30;1.00
38131;DHT22;23947;51.894;4.622;2022-12-07T03:41:57;4.30;1.00
38131;DHT22;23947;51.894;4.622;2022-12-07T03:44:24;4.30;1.00
38131;DHT22;23947;51.894;4.622;2022-12-07T03:54:52;4.40;1.00
38131;DHT22;23947;51.894;4.622;2022-12-07T03:57:21;4.40;1.00
38131;DHT22;23947;51.894;4.622;2022-12-07T03:59:47;4.50;1.00
38131;DHT22;23947;51.894;4.622;2022-12-07T04:02:13;4.40;1.00
38131;DHT22;23947;51.894;4.622;2022-12-07T04:04:39;4.40;1.00
38131;DHT22;23947;51.894;4.622;2022-12-07T04:07:05;4.30;1.00
38131;DHT22;23947;51.894;4.622;2022-12-07T04:09:31;4.30;1.00
38131;DHT22;23947;51.894;4.622;2022-12-07T04:11:56;4.30;1.00
38131;DHT22;23947;51.894;4.622;2022-12-07T04:14:22;4.30;1.00
38131;DHT22;23947;51.894;4.622;2022-12-07T04:16:53;4.40;1.00
38131;DHT22;23947;51.894;4.622;2022-12-07T04:19:20;4.40;1.00
38131;DHT22;23947;51.894;4.622;2022-12-07T04:21:49;4.40;1.00
38131;DHT22;23947;51.894;4.622;2022-12-07T04:24:16;4.40;1.00
38131;DHT22;23947;51.894;4.622;2022-12-07T04:26:42;4.40;1.00
38131;DHT22;23947;51.894;4.622;2022-12-07T04:29:09;4.40;1.00
38131;DHT22;23947;51.894;4.622;2022-12-07T04:31:36;4.30;1.00
38131;DHT22;23947;51.894;4.622;2022-12-07T04:34:02;4.30;1.00
38131;DHT22;23947;51.894;4.622;2022-12-07T04:36:28;4.20;1.00
38131;DHT22;23947;51.894;4.622;2022-12-07T04:38:54;4.20;1.00
38131;DHT22;23947;51.894;4.622;2022-12-07T04:41:21;4.10;1.00
38131;DHT22;23947;51.894;4.622;2022-12-07T04:43:57;4.10;1.00
38131;DHT22;23947;51.894;4.622;2022-12-07T04:46:24;4.20;1.00
38131;DHT22;23947;51.894;4.622;2022-12-07T04:48:50;4.20;1.00
38131;DHT22;23947;51.894;4.622;2022-12-07T04:51:23;4.20;1.00
38131;DHT22;23947;51.894;4.622;2022-12-07T04:53:49;4.20;1.00
38131;DHT22;23947;51.894;4.622;2022-12-07T04:56:16;4.30;1.00
38131;DHT22;23947;51.894;4.622;2022-12-07T04:58:43;4.30;1.00
38131;DHT22;23947;51.894;4.622;2022-12-07T05:01:09;4.30;1.00
38131;DHT22;23947;51.894;4.622;2022-12-07T05:03:36;4.30;1.00
38131;DHT22;23947;51.894;4.622;2022-12-07T05:06:02;4.30;1.00
38131;DHT22;23947;51.894;4.622;2022-12-07T05:08:27;4.30;1.00
38131;DHT22;23947;51.894;4.622;2022-12-07T05:10:53;4.30;1.00
38131;DHT22;23947;51.894;4.622;2022-12-07T05:13:19;4.30;1.00
38131;DHT22;23947;51.894;4.622;2022-12-07T05:15:46;4.30;1.00
38131;DHT22;23947;51.894;4.622;2022-12-07T05:18:11;4.20;1.00
38131;DHT22;23947;51.894;4.622;2022-12-07T05:20:38;4.20;1.00
38131;DHT22;23947;51.894;4.622;2022-12-07T05:23:04;4.20;1.00
38131;DHT22;23947;51.894;4.622;2022-12-07T05:25:30;4.10;1.00
38131;DHT22;23947;51.894;4.622;2022-12-07T05:27:56;4.10;1.00
38131;DHT22;23947;51.894;4.622;2022-12-07T05:30:23;4.10;1.00
38131;DHT22;23947;51.894;4.622;2022-12-07T05:32:49;4.10;1.00
38131;DHT22;23947;51.894;4.622;2022-12-07T05:35:16;4.10;1.00
38131;DHT22;23947;51.894;4.622;2022-12-07T05:37:41;4.00;1.00
38131;DHT22;23947;51.894;4.622;2022-12-07T05:40:08;4.00;1.00
38131;DHT22;23947;51.894;4.622;2022-12-07T05:42:33;3.90;1.00
38131;DHT22;23947;51.894;4.622;2022-12-07T05:44:59;3.90;1.00
38131;DHT22;23947;51.894;4.622;2022-12-07T05:47:25;3.90;1.00
38131;DHT22;23947;51.894;4.622;2022-12-07T05:49:50;3.90;1.00
38131;DHT22;23947;51.894;4.622;2022-12-07T05:52:16;4.00;1.00
38131;DHT22;23947;51.894;4.622;2022-12-07T05:54:41;4.00;1.00
38131;DHT22;23947;51.894;4.622;2022-12-07T05:57:07;4.00;1.00
38131;DHT22;23947;51.894;4.622;2022-12-07T05:59:33;4.00;1.00
38131;DHT22;23947;51.894;4.622;2022-12-07T06:02:05;4.00;1.00
38131;DHT22;23947;51.894;4.622;2022-12-07T06:04:33;4.00;1.00
38131;DHT22;23947;51.894;4.622;2022-12-07T06:06:59;4.00;1.00
38131;DHT22;23947;51.894;4.622;2022-12-07T06:09:26;4.00;1.00
38131;DHT22;23947;51.894;4.622;2022-12-07T06:11:52;3.90;1.00
38131;DHT22;23947;51.894;4.622;2022-12-07T06:14:37;3.90;1.00
38131;DHT22;23947;51.894;4.622;2022-12-07T06:17:03;3.90;1.00
38131;DHT22;23947;51.894;4.622;2022-12-07T06:19:29;3.90;1.00
38131;DHT22;23947;51.894;4.622;2022-12-07T06:21:55;3.90;1.00
38131;DHT22;23947;51.894;4.622;2022-12-07T06:24:20;3.90;1.00
38131;DHT22;23947;51.894;4.622;2022-12-07T06:26:46;3.90;1.00
38131;DHT22;23947;51.894;4.622;2022-12-07T06:29:12;3.80;1.00
38131;DHT22;23947;51.894;4.622;2022-12-07T06:31:38;3.80;1.00
38131;DHT22;23947;51.894;4.622;2022-12-07T06:34:10;3.70;1.00
38131;DHT22;23947;51.894;4.622;2022-12-07T06:36:37;3.60;1.00
38131;DHT22;23947;51.894;4.622;2022-12-07T06:39:04;3.50;1.00
38131;DHT22;23947;51.894;4.622;2022-12-07T06:41:30;3.50;1.00
38131;DHT22;23947;51.894;4.622;2022-12-07T06:43:55;3.40;1.00
38131;DHT22;23947;51.894;4.622;2022-12-07T06:46:21;3.40;1.00
38131;DHT22;23947;51.894;4.622;2022-12-07T06:48:47;3.30;1.00
38131;DHT22;23947;51.894;4.622;2022-12-07T06:51:12;3.30;1.00
38131;DHT22;23947;51.894;4.622;2022-12-07T06:53:38;3.30;1.00
38131;DHT22;23947;51.894;4.622;2022-12-07T06:56:04;3.40;1.00
38131;DHT22;23947;51.894;4.622;2022-12-07T06:58:30;3.50;1.00
38131;DHT22;23947;51.894;4.622;2022-12-07T07:00:56;3.50;1.00
38131;DHT22;23947;51.894;4.622;2022-12-07T07:03:21;3.50;1.00
38131;DHT22;23947;51.894;4.622;2022-12-07T07:05:48;3.40;1.00
38131;DHT22;23947;51.894;4.622;2022-12-07T07:08:13;3.40;1.00
38131;DHT22;23947;51.894;4.622;2022-12-07T07:10:39;3.40;1.00
38131;DHT22;23947;51.894;4.622;2022-12-07T07:13:05;3.50;1.00
38131;DHT22;23947;51.894;4.622;2022-12-07T07:15:31;3.50;1.00
38131;DHT22;23947;51.894;4.622;2022-12-07T07:17:57;3.50;1.00
38131;DHT22;23947;51.894;4.622;2022-12-07T07:20:23;3.40;1.00
38131;DHT22;23947;51.894;4.622;2022-12-07T07:22:49;3.40;1.00
38131;DHT22;23947;51.894;4.622;2022-12-07T07:25:15;3.50;1.00
38131;DHT22;23947;51.894;4.622;2022-12-07T07:27:41;3.50;1.00
38131;DHT22;23947;51.894;4.622;2022-12-07T07:30:08;3.40;1.00
38131;DHT22;23947;51.894;4.622;2022-12-07T07:32:34;3.50;1.00
38131;DHT22;23947;51.894;4.622;2022-12-07T07:34:59;3.50;1.00
38131;DHT22;23947;51.894;4.622;2022-12-07T07:37:26;3.50;1.00
38131;DHT22;23947;51.894;4.622;2022-12-07T07:39:51;3.50;1.00
38131;DHT22;23947;51.894;4.622;2022-12-07T07:42:17;3.50;1.00
38131;DHT22;23947;51.894;4.622;2022-12-07T07:44:43;3.50;1.00
38131;DHT22;23947;51.894;4.622;2022-12-07T07:47:09;3.50;1.00
38131;DHT22;23947;51.894;4.622;2022-12-07T07:49:34;3.40;1.00
38131;DHT22;23947;51.894;4.622;2022-12-07T07:52:00;3.50;1.00
38131;DHT22;23947;51.894;4.622;2022-12-07T07:54:25;3.40;1.00
38131;DHT22;23947;51.894;4.622;2022-12-07T07:56:52;3.40;1.00
38131;DHT22;23947;51.894;4.622;2022-12-07T07:59:22;3.50;1.00
38131;DHT22;23947;51.894;4.622;2022-12-07T08:01:48;3.50;1.00
38131;DHT22;23947;51.894;4.622;2022-12-07T08:04:13;3.50;1.00
38131;DHT22;23947;51.894;4.622;2022-12-07T08:06:39;3.50;1.00
38131;DHT22;23947;51.894;4.622;2022-12-07T08:09:05;3.50;1.00
38131;DHT22;23947;51.894;4.622;2022-12-07T08:11:32;3.60;1.00
38131;DHT22;23947;51.894;4.622;2022-12-07T08:14:01;3.60;1.00
38131;DHT22;23947;51.894;4.622;2022-12-07T08:16:27;3.60;1.00
38131;DHT22;23947;51.894;4.622;2022-12-07T08:18:53;3.60;1.00
38131;DHT22;23947;51.894;4.622;2022-12-07T08:21:18;3.70;1.00
38131;DHT22;23947;51.894;4.622;2022-12-07T08:23:44;3.70;1.00
38131;DHT22;23947;51.894;4.622;2022-12-07T08:26:13;3.70;1.00
38131;DHT22;23947;51.894;4.622;2022-12-07T08:28:40;3.70;1.00
38131;DHT22;23947;51.894;4.622;2022-12-07T08:31:12;3.70;1.00
38131;DHT22;23947;51.894;4.622;2022-12-07T08:33:38;3.70;1.00
38131;DHT22;23947;51.894;4.622;2022-12-07T08:36:06;3.80;1.00
38131;DHT22;23947;51.894;4.622;2022-12-07T08:38:35;3.80;1.00
38131;DHT22;23947;51.894;4.622;2022-12-07T08:41:00;3.90;1.00
38131;DHT22;23947;51.894;4.622;2022-12-07T08:43:26;3.90;1.00
38131;DHT22;23947;51.894;4.622;2022-12-07T08:46:07;4.00;1.00
38131;DHT22;23947;51.894;4.622;2022-12-07T08:48:37;4.10;1.00
38131;DHT22;23947;51.894;4.622;2022-12-07T08:51:04;4.10;1.00
38131;DHT22;23947;51.894;4.622;2022-12-07T08:53:30;4.20;1.00
38131;DHT22;23947;51.894;4.622;2022-12-07T08:55:57;4.20;1.00
38131;DHT22;23947;51.894;4.622;2022-12-07T08:58:23;4.30;1.00
38131;DHT22;23947;51.894;4.622;2022-12-07T09:00:49;4.30;1.00
38131;DHT22;23947;51.894;4.622;2022-12-07T09:03:14;4.40;1.00
38131;DHT22;23947;51.894;4.622;2022-12-07T09:05:40;4.40;1.00
38131;DHT22;23947;51.894;4.622;2022-12-07T09:08:09;4.40;1.00
38131;DHT22;23947;51.894;4.622;2022-12-07T09:10:35;4.40;1.00
38131;DHT22;23947;51.894;4.622;2022-12-07T09:13:00;4.50;1.00
38131;DHT22;23947;51.894;4.622;2022-12-07T09:15:29;4.50;1.00
38131;DHT22;23947;51.894;4.622;2022-12-07T09:17:55;4.50;1.00
38131;DHT22;23947;51.894;4.622;2022-12-07T09:20:21;4.60;1.00
38131;DHT22;23947;51.894;4.622;2022-12-07T09:22:47;4.60;1.00
38131;DHT22;23947;51.894;4.622;2022-12-07T09:25:13;4.70;1.00
38131;DHT22;23947;51.894;4.622;2022-12-07T09:27:38;4.70;1.00
38131;DHT22;23947;51.894;4.622;2022-12-07T09:30:06;4.80;1.00
38131;DHT22;23947;51.894;4.622;2022-12-07T09:32:32;4.80;1.00
38131;DHT22;23947;51.894;4.622;2022-12-07T09:35:00;4.90;1.00
38131;DHT22;23947;51.894;4.622;2022-12-07T09:37:26;5.00;1.00
38131;DHT22;23947;51.894;4.622;2022-12-07T09:39:51;5.00;1.00
38131;DHT22;23947;51.894;4.622;2022-12-07T09:42:35;5.20;1.00
38131;DHT22;23947;51.894;4.622;2022-12-07T09:45:05;5.20;1.00
38131;DHT22;23947;51.894;4.622;2022-12-07T09:47:51;5.30;1.00
38131;DHT22;23947;51.894;4.622;2022-12-07T09:50:28;5.30;1.00
38131;DHT22;23947;51.894;4.622;2022-12-07T09:53:03;5.30;1.00
38131;DHT22;23947;51.894;4.622;2022-12-07T09:55:32;5.40;1.00
38131;DHT22;23947;51.894;4.622;2022-12-07T09:57:59;5.40;1.00
38131;DHT22;23947;51.894;4.622;2022-12-07T10:00:25;5.40;1.00
38131;DHT22;23947;51.894;4.622;2022-12-07T10:02:59;5.50;1.00
38131;DHT22;23947;51.894;4.622;2022-12-07T10:05:32;5.50;1.00
38131;DHT22;23947;51.894;4.622;2022-12-07T10:08:00;5.50;1.00
38131;DHT22;23947;51.894;4.622;2022-12-07T10:10:31;5.40;1.00
38131;DHT22;23947;51.894;4.622;2022-12-07T10:13:03;5.40;1.00
38131;DHT22;23947;51.894;4.622;2022-12-07T10:15:47;5.50;1.00
38131;DHT22;23947;51.894;4.622;2022-12-07T10:20:47;5.40;1.00
38131;DHT22;23947;51.894;4.622;2022-12-07T10:23:19;5.50;1.00
38131;DHT22;23947;51.894;4.622;2022-12-07T10:25:45;5.50;1.00
38131;DHT22;23947;51.894;4.622;2022-12-07T10:28:14;5.50;1.00
38131;DHT22;23947;51.894;4.622;2022-12-07T10:30:59;5.50;1.00
38131;DHT22;23947;51.894;4.622;2022-12-07T10:36:34;5.60;1.00
38131;DHT22;23947;51.894;4.622;2022-12-07T10:39:21;5.70;1.00
38131;DHT22;23947;51.894;4.622;2022-12-07T10:41:55;5.90;1.00
38131;DHT22;23947;51.894;4.622;2022-12-07T10:44:27;6.00;1.00
38131;DHT22;23947;51.894;4.622;2022-12-07T11:00:23;6.20;1.00
38131;DHT22;23947;51.894;4.622;2022-12-07T11:09:30;6.30;1.00
38131;DHT22;23947;51.894;4.622;2022-12-07T11:23:18;6.30;1.00
38131;DHT22;23947;51.894;4.622;2022-12-07T11:34:32;6.30;1.00
38131;DHT22;23947;51.894;4.622;2022-12-07T11:36:42;6.40;1.00
38131;DHT22;23947;51.894;4.622;2022-12-07T11:39:28;6.40;1.00
38131;DHT22;23947;51.894;4.622;2022-12-07T11:42:19;6.50;1.00
38131;DHT22;23947;51.894;4.622;2022-12-07T11:52:58;6.80;1.00
38131;DHT22;23947;51.894;4.622;2022-12-07T11:55:44;6.90;1.00
38131;DHT22;23947;51.894;4.622;2022-12-07T11:58:46;7.00;1.00
38131;DHT22;23947;51.894;4.622;2022-12-07T12:04:01;6.90;1.00
38131;DHT22;23947;51.894;4.622;2022-12-07T12:06:27;7.00;1.00
38131;DHT22;23947;51.894;4.622;2022-12-07T12:20:03;5.80;1.00
38131;DHT22;23947;51.894;4.622;2022-12-07T12:22:42;5.60;1.00
38131;DHT22;23947;51.894;4.622;2022-12-07T12:25:21;5.50;1.00
38131;DHT22;23947;51.894;4.622;2022-12-07T12:27:50;5.50;1.00
38131;DHT22;23947;51.894;4.622;2022-12-07T12:30:46;5.40;1.00
38131;DHT22;23947;51.894;4.622;2022-12-07T12:33:30;5.30;1.00
38131;DHT22;23947;51.894;4.622;2022-12-07T12:54:19;5.80;1.00
38131;DHT22;23947;51.894;4.622;2022-12-07T12:59:38;5.90;1.00
38131;DHT22;23947;51.894;4.622;2022-12-07T13:02:29;5.90;1.00
38131;DHT22;23947;51.894;4.622;2022-12-07T13:15:45;5.90;1.00
38131;DHT22;23947;51.894;4.622;2022-12-07T13:20:58;5.80;1.00
38131;DHT22;23947;51.894;4.622;2022-12-07T13:26:23;5.80;1.00
38131;DHT22;23947;51.894;4.622;2022-12-07T13:31:35;5.90;1.00
38131;DHT22;23947;51.894;4.622;2022-12-07T13:34:03;5.90;1.00
38131;DHT22;23947;51.894;4.622;2022-12-07T13:36:37;6.00;1.00
38131;DHT22;23947;51.894;4.622;2022-12-07T13:39:21;6.10;1.00
38131;DHT22;23947;51.894;4.622;2022-12-07T13:41:53;6.10;1.00
38131;DHT22;23947;51.894;4.622;2022-12-07T13:44:24;6.10;1.00
38131;DHT22;23947;51.894;4.622;2022-12-07T13:47:17;6.20;1.00
38131;DHT22;23947;51.894;4.622;2022-12-07T13:49:53;6.10;1.00
38131;DHT22;23947;51.894;4.622;2022-12-07T13:52:30;6.00;1.00
38131;DHT22;23947;51.894;4.622;2022-12-07T13:57:34;6.00;1.00
38131;DHT22;23947;51.894;4.622;2022-12-07T14:00:03;5.90;1.00
38131;DHT22;23947;51.894;4.622;2022-12-07T14:02:34;5.90;1.00
38131;DHT22;23947;51.894;4.622;2022-12-07T14:05:30;5.90;1.00
38131;DHT22;23947;51.894;4.622;2022-12-07T14:08:01;5.90;1.00
38131;DHT22;23947;51.894;4.622;2022-12-07T14:10:55;5.90;1.00
38131;DHT22;23947;51.894;4.622;2022-12-07T14:16:36;5.90;1.00
38131;DHT22;23947;51.894;4.622;2022-12-07T14:22:08;6.00;1.00
38131;DHT22;23947;51.894;4.622;2022-12-07T14:24:43;6.00;1.00
38131;DHT22;23947;51.894;4.622;2022-12-07T14:27:23;6.10;1.00
38131;DHT22;23947;51.894;4.622;2022-12-07T14:29:56;6.10;1.00
38131;DHT22;23947;51.894;4.622;2022-12-07T14:32:25;6.10;1.00
38131;DHT22;23947;51.894;4.622;2022-12-07T14:35:13;6.10;1.00
38131;DHT22;23947;51.894;4.622;2022-12-07T14:37:41;6.10;1.00
38131;DHT22;23947;51.894;4.622;2022-12-07T14:40:14;6.10;1.00
38131;DHT22;23947;51.894;4.622;2022-12-07T14:42:41;6.10;1.00
38131;DHT22;23947;51.894;4.622;2022-12-07T14:45:17;6.10;1.00
38131;DHT22;23947;51.894;4.622;2022-12-07T14:47:44;6.10;1.00
38131;DHT22;23947;51.894;4.622;2022-12-07T14:50:17;6.10;1.00
38131;DHT22;23947;51.894;4.622;2022-12-07T14:52:55;6.10;1.00
38131;DHT22;23947;51.894;4.622;2022-12-07T14:55:30;6.10;1.00
38131;DHT22;23947;51.894;4.622;2022-12-07T14:57:56;6.10;1.00
38131;DHT22;23947;51.894;4.622;2022-12-07T15:00:23;6.10;1.00
38131;DHT22;23947;51.894;4.622;2022-12-07T15:02:50;6.10;1.00
38131;DHT22;23947;51.894;4.622;2022-12-07T15:05:16;6.10;1.00
38131;DHT22;23947;51.894;4.622;2022-12-07T15:07:44;6.00;1.00
38131;DHT22;23947;51.894;4.622;2022-12-07T15:10:19;6.00;1.00
38131;DHT22;23947;51.894;4.622;2022-12-07T15:12:45;6.00;1.00
38131;DHT22;23947;51.894;4.622;2022-12-07T15:15:11;6.00;1.00
38131;DHT22;23947;51.894;4.622;2022-12-07T15:17:37;6.00;1.00
38131;DHT22;23947;51.894;4.622;2022-12-07T15:20:03;6.00;1.00
38131;DHT22;23947;51.894;4.622;2022-12-07T15:22:30;6.00;1.00
38131;DHT22;23947;51.894;4.622;2022-12-07T15:24:57;5.90;1.00
38131;DHT22;23947;51.894;4.622;2022-12-07T15:27:23;5.90;1.00
38131;DHT22;23947;51.894;4.622;2022-12-07T15:29:48;5.90;1.00
38131;DHT22;23947;51.894;4.622;2022-12-07T15:32:14;5.90;1.00
38131;DHT22;23947;51.894;4.622;2022-12-07T15:34:39;5.80;1.00
38131;DHT22;23947;51.894;4.622;2022-12-07T15:37:05;5.70;1.00
38131;DHT22;23947;51.894;4.622;2022-12-07T15:39:31;5.60;1.00
38131;DHT22;23947;51.894;4.622;2022-12-07T15:41:57;5.60;1.00
38131;DHT22;23947;51.894;4.622;2022-12-07T15:44:23;5.60;1.00
38131;DHT22;23947;51.894;4.622;2022-12-07T15:47:07;5.60;1.00
38131;DHT22;23947;51.894;4.622;2022-12-07T15:49:33;5.60;1.00
38131;DHT22;23947;51.894;4.622;2022-12-07T15:51:58;5.50;1.00
38131;DHT22;23947;51.894;4.622;2022-12-07T15:54:26;5.50;1.00
38131;DHT22;23947;51.894;4.622;2022-12-07T15:56:53;5.50;1.00
38131;DHT22;23947;51.894;4.622;2022-12-07T15:59:18;5.50;1.00
38131;DHT22;23947;51.894;4.622;2022-12-07T16:01:44;5.50;1.00
38131;DHT22;23947;51.894;4.622;2022-12-07T16:04:10;5.50;1.00
38131;DHT22;23947;51.894;4.622;2022-12-07T16:06:36;5.50;1.00
38131;DHT22;23947;51.894;4.622;2022-12-07T16:09:03;5.50;1.00
38131;DHT22;23947;51.894;4.622;2022-12-07T16:11:29;5.40;1.00
38131;DHT22;23947;51.894;4.622;2022-12-07T16:13:55;5.40;1.00
38131;DHT22;23947;51.894;4.622;2022-12-07T16:16:20;5.30;1.00
38131;DHT22;23947;51.894;4.622;2022-12-07T16:18:48;5.30;1.00
38131;DHT22;23947;51.894;4.622;2022-12-07T16:21:14;5.30;1.00
38131;DHT22;23947;51.894;4.622;2022-12-07T16:23:40;5.30;1.00
38131;DHT22;23947;51.894;4.622;2022-12-07T16:26:14;5.40;1.00
38131;DHT22;23947;51.894;4.622;2022-12-07T16:28:40;5.40;1.00
38131;DHT22;23947;51.894;4.622;2022-12-07T16:31:13;5.40;1.00
38131;DHT22;23947;51.894;4.622;2022-12-07T16:33:40;5.40;1.00
38131;DHT22;23947;51.894;4.622;2022-12-07T16:36:07;5.40;1.00
38131;DHT22;23947;51.894;4.622;2022-12-07T16:38:34;5.40;1.00
38131;DHT22;23947;51.894;4.622;2022-12-07T16:41:00;5.40;1.00
38131;DHT22;23947;51.894;4.622;2022-12-07T16:43:25;5.40;1.00
38131;DHT22;23947;51.894;4.622;2022-12-07T16:45:51;5.40;1.00
38131;DHT22;23947;51.894;4.622;2022-12-07T16:48:17;5.40;1.00
38131;DHT22;23947;51.894;4.622;2022-12-07T16:50:43;5.40;1.00
38131;DHT22;23947;51.894;4.622;2022-12-07T16:53:11;5.40;1.00
38131;DHT22;23947;51.894;4.622;2022-12-07T16:55:44;5.40;1.00
38131;DHT22;23947;51.894;4.622;2022-12-07T16:58:11;5.40;1.00
38131;DHT22;23947;51.894;4.622;2022-12-07T17:00:38;5.40;1.00
38131;DHT22;23947;51.894;4.622;2022-12-07T17:03:04;5.40;1.00
38131;DHT22;23947;51.894;4.622;2022-12-07T17:05:29;5.50;1.00
38131;DHT22;23947;51.894;4.622;2022-12-07T17:07:56;5.50;1.00
38131;DHT22;23947;51.894;4.622;2022-12-07T17:10:22;5.50;1.00
38131;DHT22;23947;51.894;4.622;2022-12-07T17:12:48;5.40;1.00
38131;DHT22;23947;51.894;4.622;2022-12-07T17:15:14;5.40;1.00
38131;DHT22;23947;51.894;4.622;2022-12-07T17:17:46;5.40;1.00
38131;DHT22;23947;51.894;4.622;2022-12-07T17:20:13;5.40;1.00
38131;DHT22;23947;51.894;4.622;2022-12-07T17:22:39;5.40;1.00
38131;DHT22;23947;51.894;4.622;2022-12-07T17:25:05;5.50;1.00
38131;DHT22;23947;51.894;4.622;2022-12-07T17:27:31;5.50;1.00
38131;DHT22;23947;51.894;4.622;2022-12-07T17:29:57;5.50;1.00
38131;DHT22;23947;51.894;4.622;2022-12-07T17:32:23;5.50;1.00
38131;DHT22;23947;51.894;4.622;2022-12-07T17:34:48;5.50;1.00
38131;DHT22;23947;51.894;4.622;2022-12-07T17:37:14;5.50;1.00
38131;DHT22;23947;51.894;4.622;2022-12-07T17:39:40;5.50;1.00
38131;DHT22;23947;51.894;4.622;2022-12-07T17:42:05;5.50;1.00
38131;DHT22;23947;51.894;4.622;2022-12-07T17:44:50;5.50;1.00
38131;DHT22;23947;51.894;4.622;2022-12-07T17:47:15;5.50;1.00
38131;DHT22;23947;51.894;4.622;2022-12-07T17:49:43;5.50;1.00
38131;DHT22;23947;51.894;4.622;2022-12-07T17:52:11;5.50;1.00
38131;DHT22;23947;51.894;4.622;2022-12-07T17:54:55;5.50;1.00
38131;DHT22;23947;51.894;4.622;2022-12-07T17:57:21;5.50;1.00
38131;DHT22;23947;51.894;4.622;2022-12-07T17:59:47;5.50;1.00
38131;DHT22;23947;51.894;4.622;2022-12-07T18:02:13;5.40;1.00
38131;DHT22;23947;51.894;4.622;2022-12-07T18:04:39;5.40;1.00
38131;DHT22;23947;51.894;4.622;2022-12-07T18:07:06;5.40;1.00
38131;DHT22;23947;51.894;4.622;2022-12-07T18:09:32;5.40;1.00
38131;DHT22;23947;51.894;4.622;2022-12-07T18:11:58;5.40;1.00
38131;DHT22;23947;51.894;4.622;2022-12-07T18:14:24;5.40;1.00
38131;DHT22;23947;51.894;4.622;2022-12-07T18:16:49;5.40;1.00
38131;DHT22;23947;51.894;4.622;2022-12-07T18:19:15;5.40;1.00
38131;DHT22;23947;51.894;4.622;2022-12-07T18:21:42;5.50;1.00
38131;DHT22;23947;51.894;4.622;2022-12-07T18:24:10;5.40;1.00
38131;DHT22;23947;51.894;4.622;2022-12-07T18:26:36;5.50;1.00
38131;DHT22;23947;51.894;4.622;2022-12-07T18:29:04;5.50;1.00
38131;DHT22;23947;51.894;4.622;2022-12-07T18:31:30;5.40;1.00
38131;DHT22;23947;51.894;4.622;2022-12-07T18:34:00;5.40;1.00
38131;DHT22;23947;51.894;4.622;2022-12-07T18:36:26;5.40;1.00
38131;DHT22;23947;51.894;4.622;2022-12-07T18:38:52;5.40;1.00
38131;DHT22;23947;51.894;4.622;2022-12-07T18:41:18;5.40;1.00
38131;DHT22;23947;51.894;4.622;2022-12-07T18:43:44;5.40;1.00
38131;DHT22;23947;51.894;4.622;2022-12-07T18:46:28;5.40;1.00
38131;DHT22;23947;51.894;4.622;2022-12-07T18:48:54;5.40;1.00
38131;DHT22;23947;51.894;4.622;2022-12-07T18:51:22;5.50;1.00
38131;DHT22;23947;51.894;4.622;2022-12-07T18:53:48;5.50;1.00